createdAt,value
2022-12-25T00:00:20.726Z,5.13
2022-12-25T00:02:48.879Z,4.53
2022-12-25T00:05:16.856Z,4.60
2022-12-25T00:07:44.352Z,4.03
2022-12-25T00:10:12.382Z,4.97
2022-12-25T00:12:40.125Z,4.90
2022-12-25T00:15:08.278Z,4.70
2022-12-25T00:17:37.194Z,4.70
2022-12-25T00:20:05.687Z,5.10
2022-12-25T00:22:33.398Z,4.33
2022-12-25T00:25:00.950Z,3.93
2022-12-25T00:27:32.676Z,4.83
2022-12-25T00:30:00.521Z,4.77
2022-12-25T00:32:28.166Z,4.50
2022-12-25T00:34:57.106Z,4.30
2022-12-25T00:37:24.652Z,7.47
2022-12-25T00:39:52.221Z,3.80
2022-12-25T00:42:19.805Z,4.70
2022-12-25T00:44:47.531Z,5.60
2022-12-25T00:47:15.529Z,5.70
2022-12-25T00:49:43.204Z,5.03
2022-12-25T00:52:12.194Z,6.67
2022-12-25T00:54:40.001Z,5.67
2022-12-25T00:57:07.599Z,5.30
2022-12-25T00:59:35.729Z,4.20
2022-12-25T01:02:58.253Z,5.70
2022-12-25T01:05:25.878Z,5.23
2022-12-25T01:07:56.817Z,5.90
2022-12-25T01:10:23.647Z,4.90
2022-12-25T01:12:52.277Z,3.87
2022-12-25T01:15:22.891Z,5.20
2022-12-25T01:17:50.853Z,4.60
2022-12-25T01:20:19.225Z,4.37
2022-12-25T01:22:48.508Z,5.60
2022-12-25T01:25:19.594Z,5.83
2022-12-25T01:27:47.597Z,5.70
2022-12-25T01:30:17.578Z,4.77
2022-12-25T01:32:45.547Z,5.73
2022-12-25T01:35:13.181Z,6.50
2022-12-25T01:37:40.720Z,4.97
2022-12-25T01:40:09.829Z,4.07
2022-12-25T01:42:38.898Z,6.20
2022-12-25T01:45:34.694Z,5.40
2022-12-25T01:48:04.592Z,6.00
2022-12-25T01:50:32.308Z,5.07
2022-12-25T01:52:59.849Z,5.80
2022-12-25T01:55:27.847Z,5.30
2022-12-25T01:57:57.199Z,4.10
2022-12-25T02:00:24.967Z,5.40
2022-12-25T02:02:55.644Z,4.80
2022-12-25T02:05:26.865Z,4.70
2022-12-25T02:07:55.870Z,5.83
2022-12-25T02:10:23.473Z,5.30
2022-12-25T02:12:51.074Z,5.27
2022-12-25T02:15:22.701Z,6.27
2022-12-25T02:17:58.629Z,5.30
2022-12-25T02:20:37.086Z,5.57
2022-12-25T02:23:14.856Z,5.50
2022-12-25T02:25:49.745Z,5.17
2022-12-25T02:28:21.366Z,4.70
2022-12-25T02:30:53.964Z,5.83
2022-12-25T02:33:43.121Z,5.30
2022-12-25T02:36:15.194Z,5.30
2022-12-25T02:39:03.104Z,5.13
2022-12-25T02:41:34.084Z,5.13
2022-12-25T02:44:23.048Z,5.70
2022-12-25T02:47:08.260Z,5.17
2022-12-25T02:49:53.147Z,5.07
2022-12-25T02:52:39.559Z,5.03
2022-12-25T02:55:28.419Z,5.00
2022-12-25T02:58:15.134Z,5.10
2022-12-25T03:01:05.463Z,6.30
2022-12-25T03:03:53.296Z,4.20
2022-12-25T03:06:39.197Z,4.20
2022-12-25T03:09:21.285Z,4.33
2022-12-25T03:11:49.324Z,4.60
2022-12-25T03:14:34.857Z,3.90
2022-12-25T03:17:03.741Z,4.97
2022-12-25T03:19:51.024Z,4.93
2022-12-25T03:22:40.761Z,4.80
2022-12-25T03:25:26.523Z,5.57
2022-12-25T03:27:56.593Z,5.27
2022-12-25T03:30:42.237Z,5.83
2022-12-25T03:33:43.811Z,4.87
2022-12-25T03:36:10.080Z,5.20
2022-12-25T03:39:02.345Z,6.80
2022-12-25T03:41:52.263Z,5.73
2022-12-25T03:44:42.581Z,6.50
2022-12-25T03:47:36.211Z,6.20
2022-12-25T03:50:26.075Z,5.77
2022-12-25T03:53:12.269Z,5.87
2022-12-25T03:55:54.520Z,5.83
2022-12-25T03:58:42.050Z,6.60
2022-12-25T04:01:27.505Z,5.80
2022-12-25T04:04:12.636Z,5.67
2022-12-25T04:06:59.089Z,5.70
2022-12-25T04:09:44.464Z,4.83
2022-12-25T04:12:29.653Z,5.30
2022-12-25T04:15:14.915Z,5.67
2022-12-25T04:18:14.489Z,5.00
2022-12-25T04:20:59.796Z,5.60
2022-12-25T04:23:46.416Z,5.53
2022-12-25T04:26:31.135Z,5.47
2022-12-25T04:29:16.434Z,4.77
2022-12-25T04:32:01.710Z,5.50
2022-12-25T04:34:47.194Z,6.30
2022-12-25T04:37:14.661Z,6.90
2022-12-25T04:39:43.489Z,6.07
2022-12-25T04:42:10.970Z,5.93
2022-12-25T04:44:38.434Z,5.80
2022-12-25T04:47:11.151Z,5.90
2022-12-25T04:49:39.288Z,5.00
2022-12-25T04:52:06.736Z,5.10
2022-12-25T04:54:34.220Z,5.00
2022-12-25T04:57:03.055Z,5.80
2022-12-25T04:59:30.526Z,6.20
2022-12-25T05:01:58.147Z,5.87
2022-12-25T05:04:25.709Z,5.00
2022-12-25T05:06:53.168Z,6.00
2022-12-25T05:09:21.447Z,5.13
2022-12-25T05:11:48.881Z,5.77
2022-12-25T05:14:17.787Z,5.60
2022-12-25T05:16:45.401Z,6.57
2022-12-25T05:19:12.861Z,6.00
2022-12-25T05:21:40.320Z,5.50
2022-12-25T05:24:08.174Z,5.10
2022-12-25T05:26:35.617Z,6.03
2022-12-25T05:29:03.055Z,6.93
2022-12-25T05:31:31.995Z,5.90
2022-12-25T05:33:59.497Z,5.47
2022-12-25T05:36:26.992Z,4.90
2022-12-25T05:38:54.441Z,6.10
2022-12-25T05:41:21.945Z,6.27
2022-12-25T05:43:49.451Z,4.90
2022-12-25T05:46:17.792Z,4.90
2022-12-25T05:48:46.645Z,5.40
2022-12-25T05:51:15.414Z,5.10
2022-12-25T05:53:43.850Z,5.90
2022-12-25T05:56:11.700Z,5.23
2022-12-25T05:58:40.520Z,5.67
2022-12-25T06:01:11.876Z,5.80
2022-12-25T06:03:39.489Z,5.00
2022-12-25T06:06:08.572Z,5.20
2022-12-25T06:08:36.183Z,4.80
2022-12-25T06:11:05.327Z,4.83
2022-12-25T06:13:33.846Z,5.33
2022-12-25T06:16:04.796Z,6.10
2022-12-25T06:18:32.512Z,5.10
2022-12-25T06:20:59.971Z,5.10
2022-12-25T06:23:28.858Z,6.40
2022-12-25T06:25:56.296Z,6.30
2022-12-25T06:28:23.755Z,4.90
2022-12-25T06:30:51.223Z,5.50
2022-12-25T06:33:19.692Z,4.70
2022-12-25T06:35:47.148Z,5.73
2022-12-25T06:38:14.586Z,4.77
2022-12-25T06:40:43.380Z,6.00
2022-12-25T06:43:10.805Z,5.30
2022-12-25T06:45:38.297Z,5.30
2022-12-25T06:48:06.182Z,4.60
2022-12-25T06:50:33.641Z,4.50
2022-12-25T06:53:01.107Z,5.23
2022-12-25T06:55:28.577Z,4.23
2022-12-25T06:57:57.369Z,4.97
2022-12-25T07:00:24.835Z,5.33
2022-12-25T07:02:52.571Z,4.73
2022-12-25T07:05:20.128Z,5.47
2022-12-25T07:07:47.573Z,4.83
2022-12-25T07:10:15.218Z,4.93
2022-12-25T07:12:42.691Z,4.60
2022-12-25T07:15:12.008Z,4.03
2022-12-25T07:17:39.527Z,3.90
2022-12-25T07:20:08.451Z,4.90
2022-12-25T07:22:35.969Z,4.70
2022-12-25T07:25:03.505Z,4.70
2022-12-25T07:27:31.032Z,4.93
2022-12-25T07:29:58.480Z,5.23
2022-12-25T07:32:27.297Z,4.37
2022-12-25T07:34:54.717Z,4.37
2022-12-25T07:37:22.171Z,3.90
2022-12-25T07:39:49.628Z,4.97
2022-12-25T07:42:21.754Z,5.40
2022-12-25T07:44:52.424Z,3.87
2022-12-25T07:47:19.862Z,4.23
2022-12-25T07:49:48.657Z,3.17
2022-12-25T07:52:16.128Z,4.10
2022-12-25T07:54:43.602Z,3.70
2022-12-25T07:57:11.115Z,3.43
2022-12-25T07:59:38.557Z,3.70
2022-12-25T08:02:06.359Z,4.27
2022-12-25T08:04:34.031Z,3.43
2022-12-25T08:07:02.876Z,4.00
2022-12-25T08:09:30.301Z,3.60
2022-12-25T08:11:57.807Z,3.57
2022-12-25T08:14:25.330Z,4.30
2022-12-25T08:16:52.919Z,5.30
2022-12-25T08:19:20.548Z,7.40
2022-12-25T08:21:48.019Z,9.70
2022-12-25T08:24:16.870Z,19.53
2022-12-25T08:26:44.354Z,16.33
2022-12-25T08:29:11.805Z,15.23
2022-12-25T08:31:45.783Z,6.60
2022-12-25T08:34:13.717Z,4.70
2022-12-25T08:36:41.441Z,4.67
2022-12-25T08:39:09.146Z,4.83
2022-12-25T08:41:40.262Z,6.40
2022-12-25T08:44:08.044Z,5.60
2022-12-25T08:46:36.620Z,5.20
2022-12-25T08:49:04.273Z,6.30
2022-12-25T08:51:31.860Z,5.70
2022-12-25T08:54:01.136Z,3.23
2022-12-25T08:56:28.848Z,4.27
2022-12-25T08:58:57.756Z,4.30
2022-12-25T09:01:25.409Z,4.43
2022-12-25T09:03:53.045Z,3.70
2022-12-25T09:06:20.663Z,3.70
2022-12-25T09:08:49.800Z,4.50
2022-12-25T09:11:19.168Z,4.80
2022-12-25T09:13:46.915Z,4.63
2022-12-25T09:16:18.076Z,5.50
2022-12-25T09:18:45.814Z,5.63
2022-12-25T09:21:15.761Z,5.43
2022-12-25T09:23:43.615Z,9.70
2022-12-25T09:26:13.518Z,10.67
2022-12-25T09:28:45.333Z,11.67
2022-12-25T09:31:19.560Z,11.03
2022-12-25T09:33:47.353Z,25.17
2022-12-25T09:36:15.149Z,19.00
2022-12-25T09:38:42.920Z,20.00
2022-12-25T09:41:15.963Z,17.90
2022-12-25T09:43:47.053Z,7.53
2022-12-25T09:46:16.981Z,8.03
2022-12-25T09:52:34.859Z,9.27
2022-12-25T09:55:08.038Z,5.20
2022-12-25T09:57:35.495Z,15.00
2022-12-25T10:00:03.119Z,21.90
2022-12-25T10:02:37.718Z,8.80
2022-12-25T10:05:19.550Z,20.20
2022-12-25T10:07:51.840Z,32.80
2022-12-25T10:10:30.601Z,30.43
2022-12-25T10:13:04.182Z,8.60
2022-12-25T10:15:36.712Z,13.80
2022-12-25T10:18:33.854Z,19.87
2022-12-25T10:21:05.720Z,32.90
2022-12-25T10:23:39.424Z,26.00
2022-12-25T10:26:15.202Z,8.17
2022-12-25T10:28:45.764Z,4.90
2022-12-25T10:31:20.444Z,3.83
2022-12-25T10:33:48.138Z,3.50
2022-12-25T10:36:21.017Z,4.20
2022-12-25T10:38:48.931Z,5.40
2022-12-25T10:41:27.312Z,4.53
2022-12-25T10:43:56.332Z,4.10
2022-12-25T10:46:27.452Z,3.07
2022-12-25T10:48:57.692Z,4.10
2022-12-25T10:51:31.616Z,3.20
2022-12-25T10:53:59.201Z,3.83
2022-12-25T10:56:26.773Z,4.30
2022-12-25T10:59:05.624Z,4.37
2022-12-25T11:01:33.306Z,4.30
2022-12-25T11:04:01.019Z,3.83
2022-12-25T11:06:32.018Z,3.80
2022-12-25T11:09:01.742Z,5.37
2022-12-25T11:11:30.699Z,4.67
2022-12-25T11:14:00.232Z,3.50
2022-12-25T11:16:30.759Z,6.47
2022-12-25T11:18:59.818Z,4.50
2022-12-25T11:21:31.168Z,16.33
2022-12-25T11:24:00.386Z,3.63
2022-12-25T11:26:28.300Z,3.80
2022-12-25T11:28:56.633Z,3.10
2022-12-25T11:31:30.987Z,3.00
2022-12-25T11:34:01.632Z,3.93
2022-12-25T11:36:33.165Z,3.60
2022-12-25T11:39:02.746Z,4.33
2022-12-25T11:41:33.540Z,4.43
2022-12-25T11:44:04.864Z,3.60
2022-12-25T11:46:37.176Z,3.13
2022-12-25T11:49:08.280Z,4.43
2022-12-25T11:51:39.835Z,4.77
2022-12-25T11:54:15.514Z,4.40
2022-12-25T11:56:43.402Z,3.70
2022-12-25T11:59:18.239Z,4.67
2022-12-25T12:01:48.311Z,3.47
2022-12-25T12:04:24.310Z,5.00
2022-12-25T12:06:58.600Z,4.60
2022-12-25T12:09:37.781Z,4.87
2022-12-25T12:12:09.890Z,6.33
2022-12-25T12:14:46.499Z,7.40
2022-12-25T12:17:16.032Z,5.87
2022-12-25T12:19:43.548Z,4.20
2022-12-25T12:22:25.106Z,4.60
2022-12-25T12:24:56.682Z,4.37
2022-12-25T12:27:28.300Z,4.27
2022-12-25T12:29:57.549Z,3.93
2022-12-25T12:32:31.126Z,4.10
2022-12-25T12:34:59.012Z,3.77
2022-12-25T12:37:30.315Z,4.13
2022-12-25T12:39:57.903Z,4.13
2022-12-25T12:42:27.530Z,3.67
2022-12-25T12:44:55.679Z,10.27
2022-12-25T12:47:31.230Z,4.30
2022-12-25T12:50:00.284Z,5.10
2022-12-25T12:52:33.403Z,4.30
2022-12-25T12:55:02.763Z,4.40
2022-12-25T12:57:32.727Z,3.50
2022-12-25T13:00:08.623Z,4.00
2022-12-25T13:03:06.715Z,4.87
2022-12-25T13:05:39.242Z,3.73
2022-12-25T13:08:15.683Z,5.87
2022-12-25T13:10:46.758Z,5.60
2022-12-25T13:13:17.979Z,5.30
2022-12-25T13:15:47.525Z,5.00
2022-12-25T13:18:15.499Z,5.20
2022-12-25T13:20:46.906Z,3.60
2022-12-25T13:23:22.253Z,4.40
2022-12-25T13:25:53.538Z,3.10
2022-12-25T13:28:26.719Z,3.27
2022-12-25T13:30:54.273Z,3.43
2022-12-25T13:33:22.012Z,3.13
2022-12-25T13:35:49.556Z,3.37
2022-12-25T13:38:18.905Z,2.60
2022-12-25T13:41:11.228Z,3.33
2022-12-25T13:43:39.221Z,3.43
2022-12-25T13:46:06.942Z,3.10
2022-12-25T13:48:34.604Z,2.77
2022-12-25T13:51:03.043Z,3.50
2022-12-25T13:53:32.172Z,2.60
2022-12-25T13:56:00.269Z,2.97
2022-12-25T13:58:30.939Z,3.87
2022-12-25T14:00:59.554Z,3.30
2022-12-25T14:03:32.151Z,2.90
2022-12-25T14:06:01.993Z,2.80
2022-12-25T14:08:32.467Z,3.00
2022-12-25T14:11:03.562Z,3.13
2022-12-25T14:13:32.000Z,3.57
2022-12-25T14:15:59.750Z,2.47
2022-12-25T14:18:28.054Z,3.13
2022-12-25T14:20:59.148Z,3.17
2022-12-25T14:23:26.957Z,3.40
2022-12-25T14:25:56.389Z,2.40
2022-12-25T14:28:26.739Z,3.67
2022-12-25T14:30:54.545Z,3.10
2022-12-25T14:33:23.990Z,3.60
2022-12-25T14:35:52.401Z,3.83
2022-12-25T14:38:24.141Z,4.00
2022-12-25T14:41:00.647Z,3.63
2022-12-25T14:43:29.624Z,3.40
2022-12-25T14:45:58.841Z,2.97
2022-12-25T14:48:27.917Z,4.83
2022-12-25T14:50:58.736Z,4.90
2022-12-25T14:53:33.418Z,5.00
2022-12-25T14:56:02.327Z,5.53
2022-12-25T14:58:32.695Z,6.03
2022-12-25T15:01:02.379Z,7.17
2022-12-25T15:03:32.772Z,7.30
2022-12-25T15:06:02.268Z,6.60
2022-12-25T15:08:31.231Z,6.00
2022-12-25T15:11:01.675Z,6.10
2022-12-25T15:13:31.964Z,6.07
2022-12-25T15:16:02.502Z,5.93
2022-12-25T15:18:32.922Z,5.70
2022-12-25T15:21:00.564Z,7.93
2022-12-25T15:23:28.035Z,6.17
2022-12-25T15:25:55.487Z,6.20
2022-12-25T15:28:22.957Z,7.83
2022-12-25T15:30:52.024Z,7.00
2022-12-25T15:33:20.105Z,7.13
2022-12-25T15:35:47.596Z,6.87
2022-12-25T15:38:15.195Z,6.77
2022-12-25T15:40:43.004Z,8.40
2022-12-25T15:43:38.987Z,7.10
2022-12-25T15:46:02.682Z,6.87
2022-12-25T15:48:30.172Z,7.33
2022-12-25T15:50:57.661Z,7.33
2022-12-25T15:53:26.798Z,7.30
2022-12-25T15:55:54.367Z,7.50
2022-12-25T15:58:21.789Z,7.83
2022-12-25T16:00:49.903Z,6.07
2022-12-25T16:03:18.708Z,6.83
2022-12-25T16:05:46.315Z,7.47
2022-12-25T16:08:13.822Z,7.63
2022-12-25T16:10:41.429Z,6.90
2022-12-25T16:13:08.901Z,7.40
2022-12-25T16:15:36.430Z,6.10
2022-12-25T16:18:04.388Z,6.90
2022-12-25T16:20:33.278Z,7.90
2022-12-25T16:23:00.752Z,6.27
2022-12-25T16:25:28.265Z,6.70
2022-12-25T16:27:55.736Z,7.40
2022-12-25T16:30:23.253Z,5.80
2022-12-25T16:32:51.705Z,6.10
2022-12-25T16:35:19.337Z,7.37
2022-12-25T16:37:48.142Z,5.80
2022-12-25T16:40:15.711Z,6.93
2022-12-25T16:42:43.294Z,5.77
2022-12-25T16:45:11.715Z,5.33
2022-12-25T16:47:39.266Z,5.67
2022-12-25T16:50:09.800Z,4.63
2022-12-25T16:52:37.368Z,5.50
2022-12-25T16:55:06.981Z,5.27
2022-12-25T16:57:34.675Z,4.83
2022-12-25T17:00:02.328Z,5.77
2022-12-25T17:02:30.276Z,5.33
2022-12-25T17:04:58.049Z,6.63
2022-12-25T17:07:25.589Z,7.17
2022-12-25T17:09:53.075Z,5.60
2022-12-25T17:12:21.912Z,5.50
2022-12-25T17:14:49.403Z,5.77
2022-12-25T17:17:16.995Z,6.30
2022-12-25T17:19:44.563Z,5.60
2022-12-25T17:22:12.137Z,5.70
2022-12-25T17:24:41.348Z,6.47
2022-12-25T17:27:09.389Z,5.60
2022-12-25T17:29:39.670Z,6.80
2022-12-25T17:32:07.769Z,6.00
2022-12-25T17:34:35.443Z,5.60
2022-12-25T17:37:02.957Z,5.27
2022-12-25T17:39:30.649Z,6.40
2022-12-25T17:41:58.381Z,5.17
2022-12-25T17:44:28.886Z,5.63
2022-12-25T17:46:57.774Z,5.73
2022-12-25T17:49:25.544Z,6.50
2022-12-25T17:51:54.857Z,5.73
2022-12-25T17:54:22.472Z,5.20
2022-12-25T17:56:50.628Z,5.43
2022-12-25T17:59:19.133Z,6.67
2022-12-25T18:01:48.909Z,4.80
2022-12-25T18:04:17.929Z,5.07
2022-12-25T18:06:45.725Z,5.10
2022-12-25T18:09:13.847Z,3.73
2022-12-25T18:11:43.150Z,4.13
2022-12-25T18:14:13.090Z,4.27
2022-12-25T18:16:43.324Z,3.70
2022-12-25T18:19:11.134Z,4.90
2022-12-25T18:21:40.192Z,4.63
2022-12-25T18:24:09.001Z,4.87
2022-12-25T18:26:37.471Z,4.70
2022-12-25T18:29:06.686Z,5.40
2022-12-25T18:31:34.718Z,5.20
2022-12-25T18:34:02.449Z,4.60
2022-12-25T18:36:30.874Z,5.17
2022-12-25T18:39:00.303Z,4.97
2022-12-25T18:41:30.158Z,4.10
2022-12-25T18:43:58.173Z,5.40
2022-12-25T18:46:26.708Z,7.23
2022-12-25T18:48:54.817Z,7.50
2022-12-25T18:51:22.320Z,8.13
2022-12-25T18:53:49.853Z,5.90
2022-12-25T18:56:19.092Z,6.00
2022-12-25T18:58:47.022Z,5.50
2022-12-25T19:01:16.047Z,5.60
2022-12-25T19:03:44.057Z,5.40
2022-12-25T19:06:17.757Z,5.03
2022-12-25T19:08:45.464Z,6.27
2022-12-25T19:11:13.142Z,5.50
2022-12-25T19:13:42.195Z,4.90
2022-12-25T19:16:10.830Z,5.17
2022-12-25T19:18:38.760Z,5.20
2022-12-25T19:21:08.201Z,5.63
2022-12-25T19:23:37.663Z,6.23
2022-12-25T19:26:05.839Z,5.27
2022-12-25T19:28:33.395Z,5.57
2022-12-25T19:31:02.918Z,7.13
2022-12-25T19:33:32.147Z,6.97
2022-12-25T19:36:00.815Z,7.47
2022-12-25T19:38:28.488Z,7.50
2022-12-25T19:41:02.280Z,7.97
2022-12-25T19:43:30.479Z,9.17
2022-12-25T19:45:58.445Z,8.43
2022-12-25T19:48:27.382Z,8.37
2022-12-25T19:50:55.314Z,7.83
2022-12-25T19:53:24.060Z,6.90
2022-12-25T19:55:52.231Z,8.23
2022-12-25T19:58:19.849Z,6.60
2022-12-25T20:00:58.003Z,6.50
2022-12-25T20:03:27.320Z,6.93
2022-12-25T20:05:55.074Z,6.97
2022-12-25T20:08:22.681Z,6.80
2022-12-25T20:10:50.551Z,11.13
2022-12-25T20:13:18.224Z,11.67
2022-12-25T20:15:46.100Z,10.90
2022-12-25T20:18:13.637Z,10.00
2022-12-25T20:20:42.851Z,10.37
2022-12-25T20:23:10.719Z,9.33
2022-12-25T20:25:40.510Z,8.63
2022-12-25T20:28:08.291Z,9.17
2022-12-25T20:30:39.433Z,8.33
2022-12-25T20:33:07.014Z,8.40
2022-12-25T20:35:34.580Z,8.53
2022-12-25T20:38:03.558Z,6.10
2022-12-25T20:40:37.584Z,4.90
2022-12-25T20:43:18.743Z,5.47
2022-12-25T20:45:46.572Z,5.17
2022-12-25T20:48:14.164Z,4.90
2022-12-25T20:50:41.711Z,4.73
2022-12-25T20:53:10.716Z,4.63
2022-12-25T20:55:38.374Z,5.47
2022-12-25T20:58:05.879Z,5.60
2022-12-25T21:00:33.530Z,5.30
2022-12-25T21:03:01.145Z,4.60
2022-12-25T21:05:28.856Z,4.00
2022-12-25T21:07:56.440Z,5.27
2022-12-25T21:10:25.549Z,5.37
2022-12-25T21:12:53.118Z,4.00
2022-12-25T21:15:20.832Z,4.47
2022-12-25T21:17:48.400Z,4.33
2022-12-25T21:20:16.098Z,4.90
2022-12-25T21:22:43.693Z,4.13
2022-12-25T21:25:11.299Z,5.40
2022-12-25T21:27:40.558Z,4.33
2022-12-25T21:30:14.393Z,3.73
2022-12-25T21:33:00.514Z,3.83
2022-12-25T21:35:28.124Z,3.60
2022-12-25T21:37:55.727Z,3.93
2022-12-25T21:40:23.286Z,3.60
2022-12-25T21:42:52.851Z,3.80
2022-12-25T21:45:20.406Z,4.17
2022-12-25T21:48:02.447Z,4.40
2022-12-25T21:50:48.784Z,3.87
2022-12-25T21:53:16.763Z,3.37
2022-12-25T21:55:44.349Z,3.80
2022-12-25T21:58:13.233Z,4.00
2022-12-25T22:00:40.778Z,3.20
2022-12-25T22:03:08.508Z,3.83
2022-12-25T22:05:54.905Z,3.43
2022-12-25T22:08:22.469Z,3.63
2022-12-25T22:10:50.029Z,3.93
2022-12-25T22:13:36.553Z,4.03
2022-12-25T22:16:22.509Z,4.07
2022-12-25T22:19:07.651Z,4.00
2022-12-25T22:21:35.321Z,3.80
2022-12-25T22:24:02.900Z,3.63
2022-12-25T22:26:31.151Z,3.70
2022-12-25T22:29:00.112Z,3.40
2022-12-25T22:31:27.703Z,3.70
2022-12-25T22:33:55.342Z,3.57
2022-12-25T22:36:23.527Z,2.97
2022-12-25T22:38:51.067Z,3.70
2022-12-25T22:41:21.616Z,4.10
2022-12-25T22:44:16.496Z,3.97
2022-12-25T22:46:40.593Z,3.10
2022-12-25T22:49:08.505Z,2.83
2022-12-25T22:51:38.480Z,3.60
2022-12-25T22:54:12.440Z,3.40
2022-12-25T22:56:40.986Z,3.60
2022-12-25T22:59:09.272Z,3.00
2022-12-25T23:01:40.038Z,3.33
2022-12-25T23:04:09.216Z,2.53
2022-12-25T23:06:37.499Z,3.03
2022-12-25T23:09:08.312Z,3.70
2022-12-25T23:11:38.039Z,3.40
2022-12-25T23:14:28.123Z,3.13
2022-12-25T23:16:57.453Z,3.67
2022-12-25T23:19:42.648Z,3.63
2022-12-25T23:22:33.546Z,3.30
2022-12-25T23:25:21.069Z,3.60
2022-12-25T23:27:48.917Z,3.30
2022-12-25T23:30:16.878Z,3.13
2022-12-25T23:32:46.031Z,2.90
2022-12-25T23:35:16.202Z,3.37
2022-12-25T23:37:58.757Z,3.50
2022-12-25T23:40:26.705Z,3.30
2022-12-25T23:42:54.707Z,2.80
2022-12-25T23:45:25.270Z,3.43
2022-12-25T23:47:56.772Z,3.30
2022-12-25T23:50:24.667Z,3.03
2022-12-25T23:52:52.871Z,3.07
2022-12-25T23:55:21.139Z,3.00
2022-12-25T23:57:49.209Z,3.17
